createdAt,value
2022-10-04T00:00:09.702Z,100.00
2022-10-04T00:02:38.913Z,100.00
2022-10-04T00:05:09.624Z,100.00
2022-10-04T00:07:41.636Z,100.00
2022-10-04T00:10:20.837Z,100.00
2022-10-04T00:12:53.537Z,100.00
2022-10-04T00:15:26.843Z,100.00
2022-10-04T00:18:05.537Z,100.00
2022-10-04T00:21:05.857Z,100.00
2022-10-04T00:23:46.531Z,100.00
2022-10-04T00:26:56.384Z,100.00
2022-10-04T00:29:33.059Z,100.00
2022-10-04T00:32:30.129Z,100.00
2022-10-04T00:34:59.900Z,100.00
2022-10-04T00:37:29.300Z,100.00
2022-10-04T00:40:02.772Z,100.00
2022-10-04T00:42:44.758Z,100.00
2022-10-04T00:45:39.705Z,100.00
2022-10-04T00:48:31.968Z,100.00
2022-10-04T00:51:06.253Z,100.00
2022-10-04T00:53:46.105Z,100.00
2022-10-04T00:56:21.146Z,100.00
2022-10-04T00:59:10.156Z,100.00
2022-10-04T01:01:40.058Z,100.00
2022-10-04T01:04:24.546Z,100.00
2022-10-04T01:06:53.189Z,100.00
2022-10-04T01:09:24.098Z,100.00
2022-10-04T01:12:01.258Z,100.00
2022-10-04T01:14:38.272Z,100.00
2022-10-04T01:17:09.613Z,100.00
2022-10-04T01:19:37.842Z,100.00
2022-10-04T01:22:12.903Z,100.00
2022-10-04T01:24:46.172Z,100.00
2022-10-04T01:27:33.990Z,100.00
2022-10-04T01:30:04.082Z,100.00
2022-10-04T01:32:32.844Z,100.00
2022-10-04T01:35:01.101Z,100.00
2022-10-04T01:37:29.190Z,100.00
2022-10-04T01:39:58.823Z,100.00
2022-10-04T01:42:33.712Z,100.00
2022-10-04T01:45:08.903Z,100.00
2022-10-04T01:47:42.524Z,100.00
2022-10-04T01:50:17.881Z,100.00
2022-10-04T01:52:49.516Z,100.00
2022-10-04T01:55:25.428Z,100.00
2022-10-04T01:57:58.738Z,100.00
2022-10-04T02:00:40.009Z,100.00
2022-10-04T02:03:14.968Z,100.00
2022-10-04T02:05:49.307Z,100.00
2022-10-04T02:08:23.230Z,100.00
2022-10-04T02:10:55.250Z,100.00
2022-10-04T02:13:27.940Z,100.00
2022-10-04T02:15:57.484Z,100.00
2022-10-04T02:18:29.281Z,100.00
2022-10-04T02:20:58.062Z,100.00
2022-10-04T02:23:26.832Z,100.00
2022-10-04T02:25:56.632Z,100.00
2022-10-04T02:28:24.939Z,100.00
2022-10-04T02:31:18.010Z,100.00
2022-10-04T02:33:49.542Z,100.00
2022-10-04T02:36:18.957Z,100.00
2022-10-04T02:38:55.894Z,100.00
2022-10-04T02:41:29.839Z,100.00
2022-10-04T02:44:00.879Z,100.00
2022-10-04T02:46:32.427Z,100.00
2022-10-04T02:49:02.430Z,100.00
2022-10-04T02:51:35.562Z,100.00
2022-10-04T02:54:11.456Z,100.00
2022-10-04T02:56:41.092Z,100.00
2022-10-04T02:59:16.359Z,100.00
2022-10-04T03:01:52.074Z,100.00
2022-10-04T03:04:23.359Z,100.00
2022-10-04T03:06:51.798Z,100.00
2022-10-04T03:09:25.035Z,100.00
2022-10-04T03:11:57.446Z,100.00
2022-10-04T03:14:28.123Z,100.00
2022-10-04T03:17:00.743Z,100.00
2022-10-04T03:19:31.638Z,100.00
2022-10-04T03:22:04.647Z,100.00
2022-10-04T03:24:35.774Z,100.00
2022-10-04T03:27:09.221Z,100.00
2022-10-04T03:29:40.863Z,100.00
2022-10-04T03:32:09.991Z,100.00
2022-10-04T03:34:39.847Z,100.00
2022-10-04T03:37:13.368Z,100.00
2022-10-04T03:39:43.155Z,100.00
2022-10-04T03:42:17.035Z,100.00
2022-10-04T03:44:46.926Z,100.00
2022-10-04T03:47:19.008Z,100.00
2022-10-04T03:49:50.948Z,100.00
2022-10-04T03:52:24.599Z,100.00
2022-10-04T03:54:57.667Z,100.00
2022-10-04T03:57:27.302Z,100.00
2022-10-04T03:59:55.942Z,100.00
2022-10-04T04:02:35.773Z,100.00
2022-10-04T04:05:11.258Z,100.00
2022-10-04T04:07:46.394Z,100.00
2022-10-04T04:10:21.896Z,100.00
2022-10-04T04:12:57.656Z,100.00
2022-10-04T04:15:30.912Z,100.00
2022-10-04T04:18:03.677Z,100.00
2022-10-04T04:20:35.059Z,100.00
2022-10-04T04:23:06.830Z,100.00
2022-10-04T04:25:39.475Z,100.00
2022-10-04T04:28:22.567Z,100.00
2022-10-04T04:30:55.047Z,100.00
2022-10-04T04:33:30.626Z,100.00
2022-10-04T04:36:05.831Z,100.00
2022-10-04T04:38:56.695Z,100.00
2022-10-04T04:41:26.403Z,100.00
2022-10-04T04:43:56.061Z,100.00
2022-10-04T04:46:27.470Z,100.00
2022-10-04T04:49:02.666Z,100.00
2022-10-04T04:51:33.073Z,100.00
2022-10-04T04:54:04.039Z,100.00
2022-10-04T04:56:32.751Z,100.00
2022-10-04T04:59:08.363Z,100.00
2022-10-04T05:01:39.011Z,100.00
2022-10-04T05:04:18.006Z,100.00
2022-10-04T05:06:48.937Z,100.00
2022-10-04T05:09:27.539Z,100.00
2022-10-04T05:11:59.033Z,100.00
2022-10-04T05:14:31.104Z,100.00
2022-10-04T05:16:59.222Z,100.00
2022-10-04T05:19:31.907Z,100.00
2022-10-04T05:22:02.525Z,100.00
2022-10-04T05:24:32.912Z,100.00
2022-10-04T05:27:03.771Z,100.00
2022-10-04T05:29:37.923Z,100.00
2022-10-04T05:32:19.576Z,100.00
2022-10-04T05:34:51.527Z,100.00
2022-10-04T05:37:46.332Z,100.00
2022-10-04T05:40:37.170Z,100.00
2022-10-04T05:43:23.142Z,100.00
2022-10-04T05:46:14.588Z,100.00
2022-10-04T05:48:44.430Z,100.00
2022-10-04T05:51:20.721Z,100.00
2022-10-04T05:53:50.198Z,100.00
2022-10-04T05:56:37.771Z,100.00
2022-10-04T05:59:14.192Z,100.00
2022-10-04T06:01:52.037Z,100.00
2022-10-04T06:04:55.900Z,100.00
2022-10-04T06:07:31.293Z,100.00
2022-10-04T06:10:13.961Z,100.00
2022-10-04T06:12:57.387Z,100.00
2022-10-04T06:15:54.493Z,100.00
2022-10-04T06:18:39.821Z,100.00
2022-10-04T06:21:19.727Z,100.00
2022-10-04T06:23:55.422Z,100.00
2022-10-04T06:26:26.516Z,100.00
2022-10-04T06:29:00.096Z,100.00
2022-10-04T06:31:44.057Z,100.00
2022-10-04T06:34:41.770Z,100.00
2022-10-04T06:37:22.775Z,100.00
2022-10-04T06:40:10.596Z,100.00
2022-10-04T06:42:59.727Z,100.00
2022-10-04T06:45:45.092Z,100.00
2022-10-04T06:49:00.673Z,100.00
2022-10-04T06:51:44.596Z,100.00
2022-10-04T06:54:28.080Z,100.00
2022-10-04T06:57:19.092Z,100.00
2022-10-04T07:00:05.665Z,100.00
2022-10-04T07:02:40.837Z,100.00
2022-10-04T07:05:18.698Z,100.00
2022-10-04T07:08:06.692Z,100.00
2022-10-04T07:10:47.607Z,100.00
2022-10-04T07:13:25.806Z,100.00
2022-10-04T07:15:58.214Z,100.00
2022-10-04T07:18:32.939Z,100.00
2022-10-04T07:21:08.821Z,100.00
2022-10-04T07:23:46.210Z,100.00
2022-10-04T07:26:24.154Z,100.00
2022-10-04T07:29:13.629Z,100.00
2022-10-04T07:31:44.249Z,100.00
2022-10-04T07:34:17.131Z,96.76
2022-10-04T07:36:49.292Z,92.35
2022-10-04T07:39:23.908Z,91.53
2022-10-04T07:41:54.915Z,88.59
2022-10-04T07:44:34.085Z,92.05
2022-10-04T07:47:11.688Z,88.67
2022-10-04T07:49:41.126Z,85.08
2022-10-04T07:52:32.867Z,87.71
2022-10-04T07:55:15.181Z,88.46
2022-10-04T07:57:50.511Z,86.84
2022-10-04T08:00:22.227Z,82.77
2022-10-04T08:03:08.827Z,81.59
2022-10-04T08:05:43.018Z,79.25
2022-10-04T08:08:28.845Z,77.54
2022-10-04T08:11:13.747Z,72.14
2022-10-04T08:13:52.703Z,70.41
2022-10-04T08:16:35.690Z,73.75
2022-10-04T08:19:33.643Z,78.19
2022-10-04T08:22:07.039Z,77.95
2022-10-04T08:24:40.873Z,73.88
2022-10-04T08:27:31.624Z,76.39
2022-10-04T08:30:06.858Z,74.02
2022-10-04T08:32:53.040Z,71.19
2022-10-04T08:35:36.491Z,68.76
2022-10-04T08:38:41.844Z,62.88
2022-10-04T08:41:45.910Z,63.38
2022-10-04T08:44:56.955Z,58.90
2022-10-04T08:47:57.067Z,58.20
2022-10-04T08:51:07.011Z,57.01
2022-10-04T08:54:13.735Z,63.44
2022-10-04T08:57:06.365Z,65.92
2022-10-04T08:59:59.006Z,76.36
2022-10-04T09:03:00.704Z,77.27
2022-10-04T09:05:50.322Z,75.40
2022-10-04T09:09:35.047Z,67.43
2022-10-04T09:12:16.169Z,60.12
2022-10-04T09:15:27.548Z,59.07
2022-10-04T09:18:04.525Z,64.60
2022-10-04T09:20:49.184Z,57.83
2022-10-04T09:23:39.228Z,57.42
2022-10-04T09:26:21.318Z,52.78
2022-10-04T09:29:14.029Z,48.72
2022-10-04T09:32:28.308Z,48.80
2022-10-04T09:35:13.449Z,48.51
2022-10-04T09:37:55.738Z,49.52
2022-10-04T09:40:51.997Z,45.37
2022-10-04T09:43:51.198Z,42.71
2022-10-04T09:46:42.375Z,38.03
2022-10-04T09:49:24.321Z,37.71
2022-10-04T09:52:17.240Z,41.12
2022-10-04T09:55:14.537Z,39.10
2022-10-04T09:57:57.570Z,38.48
2022-10-04T10:00:29.933Z,37.68
2022-10-04T10:03:27.949Z,36.97
2022-10-04T10:06:21.965Z,37.16
2022-10-04T10:09:05.654Z,34.32
2022-10-04T10:12:01.785Z,33.35
2022-10-04T10:15:14.871Z,34.98
2022-10-04T10:17:54.595Z,36.15
2022-10-04T10:20:36.988Z,36.94
2022-10-04T10:23:43.958Z,36.38
2022-10-04T10:26:38.089Z,36.15
2022-10-04T10:29:40.722Z,38.68
2022-10-04T10:32:24.722Z,40.43
2022-10-04T10:35:20.399Z,40.21
2022-10-04T10:38:09.881Z,41.68
2022-10-04T10:41:06.904Z,37.74
2022-10-04T10:43:59.017Z,31.51
2022-10-04T10:46:43.907Z,28.40
2022-10-04T10:49:25.460Z,30.47
2022-10-04T10:52:44.503Z,31.66
2022-10-04T10:55:33.210Z,29.76
2022-10-04T10:58:47.181Z,27.73
2022-10-04T11:01:47.020Z,29.69
2022-10-04T11:04:40.240Z,34.94
2022-10-04T11:07:40.680Z,39.83
2022-10-04T11:10:50.028Z,34.91
2022-10-04T11:13:38.442Z,31.59
2022-10-04T11:16:49.857Z,24.76
2022-10-04T11:19:57.433Z,28.30
2022-10-04T11:23:19.209Z,25.02
2022-10-04T11:26:36.872Z,22.03
2022-10-04T11:29:16.419Z,23.95
2022-10-04T11:32:39.737Z,26.67
2022-10-04T11:35:41.147Z,23.91
2022-10-04T11:38:25.124Z,25.26
2022-10-04T11:41:14.481Z,30.31
2022-10-04T11:44:02.743Z,29.93
2022-10-04T11:46:40.419Z,33.00
2022-10-04T11:49:27.251Z,31.56
2022-10-04T11:52:33.177Z,30.34
2022-10-04T11:55:35.169Z,28.97
2022-10-04T11:58:14.663Z,24.41
2022-10-04T12:01:15.055Z,21.85
2022-10-04T12:04:01.200Z,21.54
2022-10-04T12:06:54.321Z,19.43
2022-10-04T12:09:28.870Z,19.20
2022-10-04T12:12:38.430Z,20.82
2022-10-04T12:15:40.946Z,22.89
2022-10-04T12:18:40.961Z,22.67
2022-10-04T12:21:42.641Z,20.29
2022-10-04T12:24:22.133Z,18.92
2022-10-04T12:27:17.807Z,19.08
2022-10-04T12:33:15.748Z,18.50
2022-10-04T12:36:16.099Z,17.61
2022-10-04T12:41:58.000Z,16.30
2022-10-04T12:44:44.291Z,16.72
2022-10-04T12:47:48.292Z,18.27
2022-10-04T12:50:30.377Z,17.46
2022-10-04T12:56:10.438Z,18.02
2022-10-04T12:58:59.684Z,19.72
2022-10-04T13:01:35.451Z,22.97
2022-10-04T13:04:25.482Z,22.49
2022-10-04T13:07:08.997Z,19.19
2022-10-04T13:10:12.003Z,18.45
2022-10-04T13:13:05.412Z,18.49
2022-10-04T13:33:52.887Z,17.97
2022-10-04T13:36:26.901Z,18.18
2022-10-04T13:39:15.982Z,17.07
2022-10-04T13:42:16.851Z,16.65
2022-10-04T13:44:56.849Z,22.99
2022-10-04T13:47:57.748Z,23.26
2022-10-04T13:50:46.380Z,21.26
2022-10-04T13:53:44.951Z,22.35
2022-10-04T13:56:38.195Z,23.00
2022-10-04T13:59:14.711Z,21.26
2022-10-04T14:02:26.992Z,19.67
2022-10-04T14:05:33.610Z,19.94
2022-10-04T14:08:36.200Z,19.30
2022-10-04T14:11:39.103Z,20.33
2022-10-04T14:14:24.270Z,20.28
2022-10-04T14:17:15.205Z,19.71
2022-10-04T14:20:06.500Z,18.56
2022-10-04T14:23:04.497Z,18.41
2022-10-04T14:29:41.526Z,18.91
2022-10-04T14:32:38.379Z,19.98
2022-10-04T14:35:15.751Z,19.52
2022-10-04T14:38:09.867Z,20.04
2022-10-04T14:40:50.638Z,27.14
2022-10-04T14:44:00.771Z,29.38
2022-10-04T14:46:42.652Z,28.97
2022-10-04T14:49:19.752Z,33.73
2022-10-04T14:52:02.324Z,36.91
2022-10-04T14:54:42.156Z,39.89
2022-10-04T14:57:19.474Z,33.48
2022-10-04T15:00:09.609Z,28.55
2022-10-04T15:03:14.345Z,26.66
2022-10-04T15:06:03.873Z,25.64
2022-10-04T15:09:15.029Z,23.89
2022-10-04T15:12:21.555Z,23.31
2022-10-04T15:15:05.440Z,22.14
2022-10-04T15:17:39.122Z,21.58
2022-10-04T15:20:20.693Z,21.56
2022-10-04T15:22:54.353Z,21.95
2022-10-04T15:25:44.428Z,21.99
2022-10-04T15:28:40.637Z,23.17
2022-10-04T15:31:17.349Z,24.22
2022-10-04T15:33:56.857Z,27.20
2022-10-04T15:36:46.872Z,29.21
2022-10-04T15:39:42.114Z,30.13
2022-10-04T15:42:16.004Z,30.31
2022-10-04T15:45:22.737Z,29.20
2022-10-04T15:48:03.072Z,30.14
2022-10-04T15:50:34.412Z,33.86
2022-10-04T15:53:29.830Z,33.04
2022-10-04T15:56:12.783Z,33.51
2022-10-04T15:59:12.892Z,36.42
2022-10-04T16:01:55.230Z,35.35
2022-10-04T16:04:38.227Z,37.93
2022-10-04T16:07:37.094Z,39.38
2022-10-04T16:10:18.948Z,40.44
2022-10-04T16:13:28.743Z,43.17
2022-10-04T16:19:14.794Z,49.22
2022-10-04T16:21:51.875Z,49.50
2022-10-04T16:24:50.593Z,52.47
2022-10-04T16:27:42.762Z,52.89
2022-10-04T16:30:26.949Z,51.80
2022-10-04T16:33:31.298Z,54.90
2022-10-04T16:36:08.796Z,60.13
2022-10-04T16:39:07.833Z,63.58
2022-10-04T16:41:44.260Z,65.78
2022-10-04T16:44:30.797Z,66.42
2022-10-04T16:47:05.066Z,67.56
2022-10-04T16:49:42.010Z,71.42
2022-10-04T16:52:48.569Z,74.94
2022-10-04T16:55:30.884Z,75.85
2022-10-04T16:58:41.389Z,76.52
2022-10-04T17:02:07.247Z,76.04
2022-10-04T17:05:22.557Z,75.96
2022-10-04T17:08:19.114Z,76.76
2022-10-04T17:11:13.381Z,77.63
2022-10-04T17:13:56.617Z,80.80
2022-10-04T17:16:35.097Z,82.30
2022-10-04T17:19:33.170Z,85.45
2022-10-04T17:22:16.826Z,87.92
2022-10-04T17:24:53.487Z,88.34
2022-10-04T17:27:28.694Z,86.62
2022-10-04T17:30:15.673Z,85.75
2022-10-04T17:33:06.450Z,86.26
2022-10-04T17:35:58.771Z,85.33
2022-10-04T17:38:36.827Z,84.26
2022-10-04T17:41:18.297Z,83.82
2022-10-04T17:44:12.339Z,85.80
2022-10-04T17:46:44.365Z,85.81
2022-10-04T17:49:40.452Z,85.70
2022-10-04T17:52:52.742Z,86.18
2022-10-04T17:55:28.873Z,87.62
2022-10-04T17:58:04.265Z,87.89
2022-10-04T18:00:52.705Z,88.29
2022-10-04T18:03:25.682Z,88.15
2022-10-04T18:05:58.633Z,88.98
2022-10-04T18:08:42.896Z,90.28
2022-10-04T18:11:23.603Z,91.44
2022-10-04T18:14:02.629Z,91.54
2022-10-04T18:16:33.301Z,91.66
2022-10-04T18:19:26.503Z,92.05
2022-10-04T18:21:56.743Z,91.89
2022-10-04T18:24:29.886Z,93.27
2022-10-04T18:27:06.708Z,95.71
2022-10-04T18:29:39.739Z,96.91
2022-10-04T18:32:32.547Z,96.76
2022-10-04T18:35:03.146Z,97.18
2022-10-04T18:37:35.759Z,97.24
2022-10-04T18:40:18.418Z,97.55
2022-10-04T18:42:53.653Z,97.48
2022-10-04T18:45:27.545Z,97.16
2022-10-04T18:47:58.617Z,96.98
2022-10-04T18:50:36.097Z,98.18
2022-10-04T18:53:36.090Z,99.03
2022-10-04T18:56:08.247Z,100.00
2022-10-04T18:59:17.911Z,100.00
2022-10-04T19:02:03.704Z,100.00
2022-10-04T19:04:45.391Z,100.00
2022-10-04T19:07:17.488Z,100.00
2022-10-04T19:10:07.734Z,99.61
2022-10-04T19:12:44.850Z,98.72
2022-10-04T19:15:26.447Z,99.12
2022-10-04T19:18:05.923Z,99.48
2022-10-04T19:20:41.702Z,99.85
2022-10-04T19:23:23.320Z,100.00
2022-10-04T19:26:26.297Z,100.00
2022-10-04T19:28:44.245Z,100.00
2022-10-04T19:31:23.056Z,100.00
2022-10-04T19:33:56.691Z,100.00
2022-10-04T19:36:43.440Z,100.00
2022-10-04T19:39:39.307Z,100.00
2022-10-04T19:42:15.253Z,100.00
2022-10-04T19:45:06.395Z,100.00
2022-10-04T19:47:45.128Z,100.00
2022-10-04T19:50:40.702Z,100.00
2022-10-04T19:53:19.390Z,100.00
2022-10-04T19:55:56.029Z,100.00
2022-10-04T19:58:36.802Z,100.00
2022-10-04T20:01:12.597Z,100.00
2022-10-04T20:03:42.036Z,100.00
2022-10-04T20:06:10.892Z,100.00
2022-10-04T20:09:02.732Z,100.00
2022-10-04T20:11:50.197Z,100.00
2022-10-04T20:14:54.568Z,100.00
2022-10-04T20:17:33.072Z,100.00
2022-10-04T20:20:06.206Z,100.00
2022-10-04T20:22:58.807Z,100.00
2022-10-04T20:26:00.846Z,100.00
2022-10-04T20:28:43.464Z,100.00
2022-10-04T20:31:36.731Z,100.00
2022-10-04T20:34:32.861Z,100.00
2022-10-04T20:37:02.896Z,100.00
2022-10-04T20:40:04.051Z,100.00
2022-10-04T20:42:40.101Z,100.00
2022-10-04T20:45:27.720Z,100.00
2022-10-04T20:47:57.711Z,100.00
2022-10-04T20:50:36.006Z,100.00
2022-10-04T20:53:13.362Z,100.00
2022-10-04T20:55:41.548Z,100.00
2022-10-04T20:58:27.336Z,100.00
2022-10-04T21:00:57.396Z,100.00
2022-10-04T21:03:25.690Z,100.00
2022-10-04T21:06:06.024Z,100.00
2022-10-04T21:08:36.805Z,100.00
2022-10-04T21:11:22.366Z,100.00
2022-10-04T21:13:58.457Z,100.00
2022-10-04T21:16:42.366Z,100.00
2022-10-04T21:19:29.790Z,100.00
2022-10-04T21:21:58.411Z,100.00
2022-10-04T21:24:36.042Z,100.00
2022-10-04T21:27:05.868Z,100.00
2022-10-04T21:29:33.721Z,100.00
2022-10-04T21:32:02.079Z,100.00
2022-10-04T21:34:51.996Z,100.00
2022-10-04T21:37:19.046Z,100.00
2022-10-04T21:39:48.423Z,100.00
2022-10-04T21:42:21.804Z,100.00
2022-10-04T21:44:49.843Z,100.00
2022-10-04T21:47:18.548Z,100.00
2022-10-04T21:49:46.391Z,100.00
2022-10-04T21:52:17.425Z,100.00
2022-10-04T21:54:48.021Z,100.00
2022-10-04T21:57:17.565Z,100.00
2022-10-04T21:59:45.451Z,100.00
2022-10-04T22:02:13.394Z,100.00
2022-10-04T22:04:41.842Z,100.00
2022-10-04T22:07:10.645Z,100.00
2022-10-04T22:09:38.450Z,100.00
2022-10-04T22:12:06.551Z,100.00
2022-10-04T22:14:36.391Z,100.00
2022-10-04T22:17:05.123Z,100.00
2022-10-04T22:19:33.055Z,100.00
2022-10-04T22:22:00.814Z,100.00
2022-10-04T22:24:28.811Z,100.00
2022-10-04T22:26:58.236Z,100.00
2022-10-04T22:29:27.627Z,100.00
2022-10-04T22:31:56.904Z,100.00
2022-10-04T22:34:24.956Z,100.00
2022-10-04T22:36:53.064Z,100.00
2022-10-04T22:39:22.091Z,100.00
2022-10-04T22:41:54.534Z,100.00
2022-10-04T22:44:24.508Z,100.00
2022-10-04T22:46:54.749Z,100.00
2022-10-04T22:49:26.346Z,100.00
2022-10-04T22:51:55.655Z,100.00
2022-10-04T22:54:26.535Z,100.00
2022-10-04T22:56:54.960Z,100.00
2022-10-04T22:59:28.288Z,100.00
2022-10-04T23:01:56.239Z,100.00
2022-10-04T23:04:26.889Z,100.00
2022-10-04T23:06:55.078Z,100.00
2022-10-04T23:09:23.042Z,100.00
2022-10-04T23:41:14.606Z,100.00
2022-10-04T23:43:43.140Z,100.00
2022-10-04T23:46:15.679Z,100.00
2022-10-04T23:48:45.970Z,100.00
2022-10-04T23:51:19.386Z,100.00
2022-10-04T23:53:51.015Z,100.00
2022-10-04T23:56:23.099Z,100.00
2022-10-04T23:58:52.388Z,100.00
